sensor_id;sensor_type;location;lat;lon;timestamp;P1;durP1;ratioP1;P2;durP2;ratioP2
2710;SDS011;20721;47.402;8.550;2023-06-22T00:00:30;9.14;;;9.10;;
2710;SDS011;20721;47.402;8.550;2023-06-22T00:01:30;8.39;;;8.34;;
2710;SDS011;20721;47.402;8.550;2023-06-22T00:02:29;7.84;;;7.82;;
2710;SDS011;20721;47.402;8.550;2023-06-22T00:03:30;7.55;;;7.54;;
2710;SDS011;20721;47.402;8.550;2023-06-22T00:05:29;7.69;;;7.69;;
2710;SDS011;20721;47.402;8.550;2023-06-22T00:06:29;7.75;;;7.75;;
2710;SDS011;20721;47.402;8.550;2023-06-22T00:07:29;7.46;;;7.46;;
2710;SDS011;20721;47.402;8.550;2023-06-22T00:08:29;7.53;;;7.53;;
2710;SDS011;20721;47.402;8.550;2023-06-22T00:09:30;8.20;;;8.20;;
2710;SDS011;20721;47.402;8.550;2023-06-22T00:10:29;7.77;;;7.74;;
2710;SDS011;20721;47.402;8.550;2023-06-22T00:11:30;8.67;;;8.64;;
2710;SDS011;20721;47.402;8.550;2023-06-22T00:12:29;7.44;;;7.40;;
2710;SDS011;20721;47.402;8.550;2023-06-22T00:13:29;7.94;;;7.89;;
2710;SDS011;20721;47.402;8.550;2023-06-22T00:14:29;7.91;;;7.91;;
2710;SDS011;20721;47.402;8.550;2023-06-22T00:15:29;7.78;;;7.78;;
2710;SDS011;20721;47.402;8.550;2023-06-22T00:16:30;8.12;;;8.05;;
2710;SDS011;20721;47.402;8.550;2023-06-22T00:17:29;7.17;;;7.08;;
2710;SDS011;20721;47.402;8.550;2023-06-22T00:18:30;8.35;;;8.29;;
2710;SDS011;20721;47.402;8.550;2023-06-22T00:19:31;8.16;;;8.12;;
2710;SDS011;20721;47.402;8.550;2023-06-22T00:20:29;8.08;;;8.05;;
2710;SDS011;20721;47.402;8.550;2023-06-22T00:21:30;7.45;;;7.45;;
2710;SDS011;20721;47.402;8.550;2023-06-22T00:22:38;8.31;;;8.31;;
2710;SDS011;20721;47.402;8.550;2023-06-22T00:23:29;7.89;;;7.89;;
2710;SDS011;20721;47.402;8.550;2023-06-22T00:24:30;8.75;;;8.75;;
2710;SDS011;20721;47.402;8.550;2023-06-22T00:26:31;8.11;;;8.11;;
2710;SDS011;20721;47.402;8.550;2023-06-22T00:27:29;8.12;;;8.12;;
2710;SDS011;20721;47.402;8.550;2023-06-22T00:28:29;7.71;;;7.71;;
2710;SDS011;20721;47.402;8.550;2023-06-22T00:29:29;8.19;;;8.18;;
2710;SDS011;20721;47.402;8.550;2023-06-22T00:30:30;7.75;;;7.75;;
2710;SDS011;20721;47.402;8.550;2023-06-22T00:31:29;8.74;;;8.74;;
2710;SDS011;20721;47.402;8.550;2023-06-22T00:32:29;7.97;;;7.97;;
2710;SDS011;20721;47.402;8.550;2023-06-22T00:33:29;8.06;;;8.06;;
2710;SDS011;20721;47.402;8.550;2023-06-22T00:35:29;8.50;;;8.50;;
2710;SDS011;20721;47.402;8.550;2023-06-22T00:36:29;7.61;;;7.61;;
2710;SDS011;20721;47.402;8.550;2023-06-22T00:38:29;7.17;;;7.17;;
2710;SDS011;20721;47.402;8.550;2023-06-22T00:40:32;8.34;;;8.27;;
2710;SDS011;20721;47.402;8.550;2023-06-22T00:41:29;7.49;;;7.45;;
2710;SDS011;20721;47.402;8.550;2023-06-22T00:42:29;7.45;;;7.45;;
2710;SDS011;20721;47.402;8.550;2023-06-22T00:43:29;7.51;;;7.51;;
2710;SDS011;20721;47.402;8.550;2023-06-22T00:44:29;8.34;;;8.30;;
2710;SDS011;20721;47.402;8.550;2023-06-22T00:46:30;7.95;;;7.93;;
2710;SDS011;20721;47.402;8.550;2023-06-22T00:47:29;7.61;;;7.57;;
2710;SDS011;20721;47.402;8.550;2023-06-22T00:48:29;7.36;;;7.34;;
2710;SDS011;20721;47.402;8.550;2023-06-22T00:49:29;8.06;;;8.06;;
2710;SDS011;20721;47.402;8.550;2023-06-22T00:50:32;7.89;;;7.88;;
2710;SDS011;20721;47.402;8.550;2023-06-22T00:52:32;7.54;;;7.53;;
2710;SDS011;20721;47.402;8.550;2023-06-22T00:53:29;7.68;;;7.68;;
2710;SDS011;20721;47.402;8.550;2023-06-22T00:54:35;8.10;;;8.07;;
2710;SDS011;20721;47.402;8.550;2023-06-22T00:55:30;8.08;;;8.08;;
2710;SDS011;20721;47.402;8.550;2023-06-22T00:56:30;7.67;;;7.67;;
2710;SDS011;20721;47.402;8.550;2023-06-22T00:57:30;8.78;;;8.78;;
2710;SDS011;20721;47.402;8.550;2023-06-22T00:58:32;8.42;;;8.42;;
2710;SDS011;20721;47.402;8.550;2023-06-22T00:59:30;8.33;;;8.33;;
2710;SDS011;20721;47.402;8.550;2023-06-22T01:00:30;8.94;;;8.94;;
2710;SDS011;20721;47.402;8.550;2023-06-22T01:02:30;7.39;;;7.37;;
2710;SDS011;20721;47.402;8.550;2023-06-22T01:03:31;8.17;;;8.15;;
2710;SDS011;20721;47.402;8.550;2023-06-22T01:04:37;8.40;;;8.37;;
2710;SDS011;20721;47.402;8.550;2023-06-22T01:05:30;7.48;;;7.44;;
2710;SDS011;20721;47.402;8.550;2023-06-22T01:06:35;7.13;;;7.13;;
2710;SDS011;20721;47.402;8.550;2023-06-22T01:07:39;7.13;;;7.13;;
2710;SDS011;20721;47.402;8.550;2023-06-22T01:09:32;7.81;;;7.81;;
2710;SDS011;20721;47.402;8.550;2023-06-22T01:11:32;8.21;;;8.21;;
2710;SDS011;20721;47.402;8.550;2023-06-22T01:12:30;8.49;;;8.49;;
2710;SDS011;20721;47.402;8.550;2023-06-22T01:15:35;7.78;;;7.78;;
2710;SDS011;20721;47.402;8.550;2023-06-22T01:16:34;8.34;;;8.34;;
2710;SDS011;20721;47.402;8.550;2023-06-22T01:18:32;8.47;;;8.42;;
2710;SDS011;20721;47.402;8.550;2023-06-22T01:20:30;8.33;;;8.29;;
2710;SDS011;20721;47.402;8.550;2023-06-22T01:21:30;7.71;;;7.70;;
2710;SDS011;20721;47.402;8.550;2023-06-22T01:23:36;7.75;;;7.75;;
2710;SDS011;20721;47.402;8.550;2023-06-22T01:25:37;7.64;;;7.64;;
2710;SDS011;20721;47.402;8.550;2023-06-22T01:29:31;8.13;;;8.13;;
2710;SDS011;20721;47.402;8.550;2023-06-22T01:30:30;7.91;;;7.90;;
2710;SDS011;20721;47.402;8.550;2023-06-22T01:31:33;7.77;;;7.77;;
2710;SDS011;20721;47.402;8.550;2023-06-22T01:32:30;7.82;;;7.82;;
2710;SDS011;20721;47.402;8.550;2023-06-22T01:34:31;7.74;;;7.74;;
2710;SDS011;20721;47.402;8.550;2023-06-22T01:35:30;7.72;;;7.70;;
2710;SDS011;20721;47.402;8.550;2023-06-22T01:36:31;7.93;;;7.93;;
2710;SDS011;20721;47.402;8.550;2023-06-22T01:37:30;8.87;;;8.84;;
2710;SDS011;20721;47.402;8.550;2023-06-22T01:40:31;8.08;;;8.08;;
2710;SDS011;20721;47.402;8.550;2023-06-22T01:41:34;8.23;;;8.23;;
2710;SDS011;20721;47.402;8.550;2023-06-22T01:42:30;8.00;;;7.99;;
2710;SDS011;20721;47.402;8.550;2023-06-22T01:43:31;7.71;;;7.69;;
2710;SDS011;20721;47.402;8.550;2023-06-22T01:44:30;8.48;;;8.48;;
2710;SDS011;20721;47.402;8.550;2023-06-22T01:45:30;7.30;;;7.30;;
2710;SDS011;20721;47.402;8.550;2023-06-22T01:46:30;7.83;;;7.81;;
2710;SDS011;20721;47.402;8.550;2023-06-22T01:47:31;8.22;;;8.20;;
2710;SDS011;20721;47.402;8.550;2023-06-22T01:48:31;8.11;;;8.06;;
2710;SDS011;20721;47.402;8.550;2023-06-22T01:49:30;8.27;;;8.17;;
2710;SDS011;20721;47.402;8.550;2023-06-22T01:50:30;8.26;;;8.18;;
2710;SDS011;20721;47.402;8.550;2023-06-22T01:51:30;7.51;;;7.48;;
2710;SDS011;20721;47.402;8.550;2023-06-22T01:52:31;7.83;;;7.79;;
2710;SDS011;20721;47.402;8.550;2023-06-22T01:53:31;7.81;;;7.78;;
2710;SDS011;20721;47.402;8.550;2023-06-22T01:54:30;8.55;;;8.50;;
2710;SDS011;20721;47.402;8.550;2023-06-22T01:55:29;8.79;;;8.72;;
2710;SDS011;20721;47.402;8.550;2023-06-22T01:56:29;9.48;;;9.44;;
2710;SDS011;20721;47.402;8.550;2023-06-22T01:57:30;8.89;;;8.82;;
2710;SDS011;20721;47.402;8.550;2023-06-22T01:58:30;8.34;;;8.29;;
2710;SDS011;20721;47.402;8.550;2023-06-22T01:59:37;8.53;;;8.53;;
2710;SDS011;20721;47.402;8.550;2023-06-22T02:00:31;8.54;;;8.48;;
2710;SDS011;20721;47.402;8.550;2023-06-22T02:01:40;7.72;;;7.65;;
2710;SDS011;20721;47.402;8.550;2023-06-22T02:02:32;9.43;;;9.36;;
2710;SDS011;20721;47.402;8.550;2023-06-22T02:03:50;7.86;;;7.86;;
2710;SDS011;20721;47.402;8.550;2023-06-22T02:04:35;8.66;;;8.65;;
2710;SDS011;20721;47.402;8.550;2023-06-22T02:05:36;8.41;;;8.40;;
2710;SDS011;20721;47.402;8.550;2023-06-22T02:06:34;7.36;;;7.31;;
2710;SDS011;20721;47.402;8.550;2023-06-22T02:07:33;7.94;;;7.88;;
2710;SDS011;20721;47.402;8.550;2023-06-22T02:08:36;8.32;;;8.31;;
2710;SDS011;20721;47.402;8.550;2023-06-22T02:10:31;8.31;;;8.30;;
2710;SDS011;20721;47.402;8.550;2023-06-22T02:11:30;7.28;;;7.27;;
2710;SDS011;20721;47.402;8.550;2023-06-22T02:12:32;8.02;;;8.02;;
2710;SDS011;20721;47.402;8.550;2023-06-22T02:13:30;7.97;;;7.96;;
2710;SDS011;20721;47.402;8.550;2023-06-22T02:14:31;8.38;;;8.37;;
2710;SDS011;20721;47.402;8.550;2023-06-22T02:15:30;7.85;;;7.85;;
2710;SDS011;20721;47.402;8.550;2023-06-22T02:16:30;7.88;;;7.87;;
2710;SDS011;20721;47.402;8.550;2023-06-22T02:17:30;8.43;;;8.41;;
2710;SDS011;20721;47.402;8.550;2023-06-22T02:18:30;8.00;;;7.98;;
2710;SDS011;20721;47.402;8.550;2023-06-22T02:19:37;8.70;;;8.62;;
2710;SDS011;20721;47.402;8.550;2023-06-22T02:20:30;8.64;;;8.60;;
2710;SDS011;20721;47.402;8.550;2023-06-22T02:21:30;8.91;;;8.85;;
2710;SDS011;20721;47.402;8.550;2023-06-22T02:22:30;8.63;;;8.62;;
2710;SDS011;20721;47.402;8.550;2023-06-22T02:23:30;8.43;;;8.43;;
2710;SDS011;20721;47.402;8.550;2023-06-22T02:24:33;7.87;;;7.87;;
2710;SDS011;20721;47.402;8.550;2023-06-22T02:25:30;7.38;;;7.38;;
2710;SDS011;20721;47.402;8.550;2023-06-22T02:26:30;8.17;;;8.17;;
2710;SDS011;20721;47.402;8.550;2023-06-22T02:27:30;7.82;;;7.82;;
2710;SDS011;20721;47.402;8.550;2023-06-22T02:28:30;8.75;;;8.71;;
2710;SDS011;20721;47.402;8.550;2023-06-22T02:29:30;7.53;;;7.49;;
2710;SDS011;20721;47.402;8.550;2023-06-22T02:30:30;8.48;;;8.45;;
2710;SDS011;20721;47.402;8.550;2023-06-22T02:31:30;8.65;;;8.65;;
2710;SDS011;20721;47.402;8.550;2023-06-22T02:32:30;7.60;;;7.60;;
2710;SDS011;20721;47.402;8.550;2023-06-22T02:33:30;7.90;;;7.90;;
2710;SDS011;20721;47.402;8.550;2023-06-22T02:34:31;8.38;;;8.38;;
2710;SDS011;20721;47.402;8.550;2023-06-22T02:35:30;8.03;;;8.03;;
2710;SDS011;20721;47.402;8.550;2023-06-22T02:36:32;7.27;;;7.27;;
2710;SDS011;20721;47.402;8.550;2023-06-22T02:37:30;7.44;;;7.44;;
2710;SDS011;20721;47.402;8.550;2023-06-22T02:38:30;7.98;;;7.97;;
2710;SDS011;20721;47.402;8.550;2023-06-22T02:39:31;7.95;;;7.93;;
2710;SDS011;20721;47.402;8.550;2023-06-22T02:40:30;7.79;;;7.77;;
2710;SDS011;20721;47.402;8.550;2023-06-22T02:41:30;8.28;;;8.27;;
2710;SDS011;20721;47.402;8.550;2023-06-22T02:42:31;8.15;;;8.12;;
2710;SDS011;20721;47.402;8.550;2023-06-22T02:43:30;8.72;;;8.72;;
2710;SDS011;20721;47.402;8.550;2023-06-22T02:44:30;8.33;;;8.33;;
2710;SDS011;20721;47.402;8.550;2023-06-22T02:45:30;8.31;;;8.28;;
2710;SDS011;20721;47.402;8.550;2023-06-22T02:46:30;7.61;;;7.55;;
2710;SDS011;20721;47.402;8.550;2023-06-22T02:47:30;7.68;;;7.65;;
2710;SDS011;20721;47.402;8.550;2023-06-22T02:48:30;8.10;;;8.06;;
2710;SDS011;20721;47.402;8.550;2023-06-22T02:49:30;7.55;;;7.54;;
2710;SDS011;20721;47.402;8.550;2023-06-22T02:50:30;7.41;;;7.31;;
2710;SDS011;20721;47.402;8.550;2023-06-22T02:51:32;8.06;;;7.98;;
2710;SDS011;20721;47.402;8.550;2023-06-22T02:52:30;8.49;;;8.42;;
2710;SDS011;20721;47.402;8.550;2023-06-22T02:53:30;8.41;;;8.41;;
2710;SDS011;20721;47.402;8.550;2023-06-22T02:54:30;8.23;;;8.16;;
2710;SDS011;20721;47.402;8.550;2023-06-22T02:55:30;8.55;;;8.55;;
2710;SDS011;20721;47.402;8.550;2023-06-22T02:56:34;7.86;;;7.85;;
2710;SDS011;20721;47.402;8.550;2023-06-22T02:57:30;7.38;;;7.38;;
2710;SDS011;20721;47.402;8.550;2023-06-22T02:58:30;7.97;;;7.96;;
2710;SDS011;20721;47.402;8.550;2023-06-22T02:59:33;8.37;;;8.37;;
2710;SDS011;20721;47.402;8.550;2023-06-22T03:00:30;7.67;;;7.67;;
2710;SDS011;20721;47.402;8.550;2023-06-22T03:01:34;8.24;;;8.24;;
2710;SDS011;20721;47.402;8.550;2023-06-22T03:02:31;8.08;;;8.08;;
2710;SDS011;20721;47.402;8.550;2023-06-22T03:03:30;7.35;;;7.34;;
2710;SDS011;20721;47.402;8.550;2023-06-22T03:04:30;7.88;;;7.86;;
2710;SDS011;20721;47.402;8.550;2023-06-22T03:05:30;7.72;;;7.72;;
2710;SDS011;20721;47.402;8.550;2023-06-22T03:06:33;7.48;;;7.48;;
2710;SDS011;20721;47.402;8.550;2023-06-22T03:07:30;7.93;;;7.93;;
2710;SDS011;20721;47.402;8.550;2023-06-22T03:08:30;7.59;;;7.59;;
2710;SDS011;20721;47.402;8.550;2023-06-22T03:09:30;7.64;;;7.64;;
2710;SDS011;20721;47.402;8.550;2023-06-22T03:10:30;6.97;;;6.97;;
2710;SDS011;20721;47.402;8.550;2023-06-22T03:11:30;8.26;;;8.24;;
2710;SDS011;20721;47.402;8.550;2023-06-22T03:13:30;8.00;;;8.00;;
2710;SDS011;20721;47.402;8.550;2023-06-22T03:14:30;6.84;;;6.84;;
2710;SDS011;20721;47.402;8.550;2023-06-22T03:15:33;7.99;;;7.99;;
2710;SDS011;20721;47.402;8.550;2023-06-22T03:16:30;8.65;;;8.65;;
2710;SDS011;20721;47.402;8.550;2023-06-22T03:17:30;8.03;;;8.02;;
2710;SDS011;20721;47.402;8.550;2023-06-22T03:18:32;8.40;;;8.37;;
2710;SDS011;20721;47.402;8.550;2023-06-22T03:19:31;7.54;;;7.50;;
2710;SDS011;20721;47.402;8.550;2023-06-22T03:20:30;7.58;;;7.58;;
2710;SDS011;20721;47.402;8.550;2023-06-22T03:21:32;7.70;;;7.69;;
2710;SDS011;20721;47.402;8.550;2023-06-22T03:24:30;8.81;;;8.81;;
2710;SDS011;20721;47.402;8.550;2023-06-22T03:26:30;8.29;;;8.18;;
2710;SDS011;20721;47.402;8.550;2023-06-22T03:27:30;8.29;;;8.20;;
2710;SDS011;20721;47.402;8.550;2023-06-22T03:29:30;7.90;;;7.83;;
2710;SDS011;20721;47.402;8.550;2023-06-22T03:30:30;8.46;;;8.43;;
2710;SDS011;20721;47.402;8.550;2023-06-22T03:31:31;8.61;;;8.58;;
2710;SDS011;20721;47.402;8.550;2023-06-22T03:32:31;7.49;;;7.48;;
2710;SDS011;20721;47.402;8.550;2023-06-22T03:33:30;8.55;;;8.54;;
2710;SDS011;20721;47.402;8.550;2023-06-22T03:34:30;8.64;;;8.63;;
2710;SDS011;20721;47.402;8.550;2023-06-22T03:35:30;7.50;;;7.50;;
2710;SDS011;20721;47.402;8.550;2023-06-22T03:37:30;8.28;;;8.28;;
2710;SDS011;20721;47.402;8.550;2023-06-22T03:38:30;8.55;;;8.53;;
2710;SDS011;20721;47.402;8.550;2023-06-22T03:40:30;8.41;;;8.37;;
2710;SDS011;20721;47.402;8.550;2023-06-22T03:41:30;8.15;;;8.09;;
2710;SDS011;20721;47.402;8.550;2023-06-22T03:44:30;8.55;;;8.52;;
2710;SDS011;20721;47.402;8.550;2023-06-22T03:46:30;8.41;;;8.40;;
2710;SDS011;20721;47.402;8.550;2023-06-22T03:47:30;8.72;;;8.70;;
2710;SDS011;20721;47.402;8.550;2023-06-22T03:48:30;8.10;;;8.07;;
2710;SDS011;20721;47.402;8.550;2023-06-22T03:49:30;9.48;;;9.44;;
2710;SDS011;20721;47.402;8.550;2023-06-22T03:50:31;8.64;;;8.64;;
2710;SDS011;20721;47.402;8.550;2023-06-22T03:51:30;7.86;;;7.86;;
2710;SDS011;20721;47.402;8.550;2023-06-22T03:52:31;8.71;;;8.71;;
2710;SDS011;20721;47.402;8.550;2023-06-22T03:53:30;9.30;;;9.30;;
2710;SDS011;20721;47.402;8.550;2023-06-22T03:54:30;8.23;;;8.23;;
2710;SDS011;20721;47.402;8.550;2023-06-22T03:55:30;8.57;;;8.56;;
2710;SDS011;20721;47.402;8.550;2023-06-22T03:56:31;9.27;;;9.27;;
2710;SDS011;20721;47.402;8.550;2023-06-22T03:57:30;8.49;;;8.48;;
2710;SDS011;20721;47.402;8.550;2023-06-22T03:58:30;8.33;;;8.22;;
2710;SDS011;20721;47.402;8.550;2023-06-22T04:00:31;8.91;;;8.89;;
2710;SDS011;20721;47.402;8.550;2023-06-22T04:01:30;8.64;;;8.60;;
2710;SDS011;20721;47.402;8.550;2023-06-22T04:02:30;8.90;;;8.86;;
2710;SDS011;20721;47.402;8.550;2023-06-22T04:03:31;8.97;;;8.90;;
2710;SDS011;20721;47.402;8.550;2023-06-22T04:07:30;8.14;;;8.14;;
2710;SDS011;20721;47.402;8.550;2023-06-22T04:08:30;9.34;;;9.34;;
2710;SDS011;20721;47.402;8.550;2023-06-22T04:11:30;8.48;;;8.45;;
2710;SDS011;20721;47.402;8.550;2023-06-22T04:12:30;9.20;;;9.20;;
2710;SDS011;20721;47.402;8.550;2023-06-22T04:14:30;8.17;;;8.16;;
2710;SDS011;20721;47.402;8.550;2023-06-22T04:15:30;8.88;;;8.88;;
2710;SDS011;20721;47.402;8.550;2023-06-22T04:17:30;9.16;;;9.15;;
2710;SDS011;20721;47.402;8.550;2023-06-22T04:18:30;8.00;;;7.97;;
2710;SDS011;20721;47.402;8.550;2023-06-22T04:19:30;8.34;;;8.31;;
2710;SDS011;20721;47.402;8.550;2023-06-22T04:20:31;8.72;;;8.68;;
2710;SDS011;20721;47.402;8.550;2023-06-22T04:21:30;8.81;;;8.77;;
2710;SDS011;20721;47.402;8.550;2023-06-22T04:22:30;10.13;;;10.06;;
2710;SDS011;20721;47.402;8.550;2023-06-22T04:24:30;9.79;;;9.76;;
2710;SDS011;20721;47.402;8.550;2023-06-22T04:25:30;9.03;;;9.01;;
2710;SDS011;20721;47.402;8.550;2023-06-22T04:26:31;9.49;;;9.45;;
2710;SDS011;20721;47.402;8.550;2023-06-22T04:27:31;8.82;;;8.82;;
2710;SDS011;20721;47.402;8.550;2023-06-22T04:28:30;9.24;;;9.24;;
2710;SDS011;20721;47.402;8.550;2023-06-22T04:29:31;7.71;;;7.70;;
2710;SDS011;20721;47.402;8.550;2023-06-22T04:30:32;9.05;;;8.96;;
2710;SDS011;20721;47.402;8.550;2023-06-22T04:32:30;8.91;;;8.88;;
2710;SDS011;20721;47.402;8.550;2023-06-22T04:34:30;8.81;;;8.76;;
2710;SDS011;20721;47.402;8.550;2023-06-22T04:35:32;8.71;;;8.71;;
2710;SDS011;20721;47.402;8.550;2023-06-22T04:36:32;8.08;;;8.08;;
2710;SDS011;20721;47.402;8.550;2023-06-22T04:37:33;9.53;;;9.53;;
2710;SDS011;20721;47.402;8.550;2023-06-22T04:39:30;8.69;;;8.65;;
2710;SDS011;20721;47.402;8.550;2023-06-22T04:40:32;9.83;;;9.79;;
2710;SDS011;20721;47.402;8.550;2023-06-22T04:41:33;9.16;;;9.13;;
2710;SDS011;20721;47.402;8.550;2023-06-22T04:42:30;8.23;;;8.23;;
2710;SDS011;20721;47.402;8.550;2023-06-22T04:43:30;9.59;;;9.59;;
2710;SDS011;20721;47.402;8.550;2023-06-22T04:44:37;8.92;;;8.92;;
2710;SDS011;20721;47.402;8.550;2023-06-22T04:45:31;8.76;;;8.75;;
2710;SDS011;20721;47.402;8.550;2023-06-22T04:46:30;9.10;;;9.07;;
2710;SDS011;20721;47.402;8.550;2023-06-22T04:47:30;8.38;;;8.34;;
2710;SDS011;20721;47.402;8.550;2023-06-22T04:48:30;8.64;;;8.61;;
2710;SDS011;20721;47.402;8.550;2023-06-22T04:49:31;8.73;;;8.71;;
2710;SDS011;20721;47.402;8.550;2023-06-22T04:50:31;8.90;;;8.90;;
2710;SDS011;20721;47.402;8.550;2023-06-22T04:51:31;9.29;;;9.29;;
2710;SDS011;20721;47.402;8.550;2023-06-22T04:52:30;8.54;;;8.51;;
2710;SDS011;20721;47.402;8.550;2023-06-22T04:53:30;9.05;;;8.99;;
2710;SDS011;20721;47.402;8.550;2023-06-22T04:54:30;8.65;;;8.60;;
2710;SDS011;20721;47.402;8.550;2023-06-22T04:56:32;9.00;;;9.00;;
2710;SDS011;20721;47.402;8.550;2023-06-22T04:57:30;9.95;;;9.95;;
2710;SDS011;20721;47.402;8.550;2023-06-22T04:58:31;9.77;;;9.76;;
2710;SDS011;20721;47.402;8.550;2023-06-22T04:59:30;10.18;;;10.12;;
2710;SDS011;20721;47.402;8.550;2023-06-22T05:00:32;10.26;;;10.15;;
2710;SDS011;20721;47.402;8.550;2023-06-22T05:01:32;8.72;;;8.67;;
2710;SDS011;20721;47.402;8.550;2023-06-22T05:02:30;8.70;;;8.70;;
2710;SDS011;20721;47.402;8.550;2023-06-22T05:03:31;10.43;;;10.38;;
2710;SDS011;20721;47.402;8.550;2023-06-22T05:04:31;9.24;;;9.14;;
2710;SDS011;20721;47.402;8.550;2023-06-22T05:05:30;9.79;;;9.72;;
2710;SDS011;20721;47.402;8.550;2023-06-22T05:06:30;9.57;;;9.52;;
2710;SDS011;20721;47.402;8.550;2023-06-22T05:07:30;9.49;;;9.44;;
2710;SDS011;20721;47.402;8.550;2023-06-22T05:08:30;10.35;;;10.27;;
2710;SDS011;20721;47.402;8.550;2023-06-22T05:09:30;9.71;;;9.61;;
2710;SDS011;20721;47.402;8.550;2023-06-22T05:10:30;9.84;;;9.74;;
2710;SDS011;20721;47.402;8.550;2023-06-22T05:11:30;9.75;;;9.66;;
2710;SDS011;20721;47.402;8.550;2023-06-22T05:12:30;9.54;;;9.47;;
2710;SDS011;20721;47.402;8.550;2023-06-22T05:13:32;9.77;;;9.73;;
2710;SDS011;20721;47.402;8.550;2023-06-22T05:14:30;9.77;;;9.73;;
2710;SDS011;20721;47.402;8.550;2023-06-22T05:15:30;9.53;;;9.50;;
2710;SDS011;20721;47.402;8.550;2023-06-22T05:16:37;10.29;;;10.28;;
2710;SDS011;20721;47.402;8.550;2023-06-22T05:17:30;10.00;;;9.99;;
2710;SDS011;20721;47.402;8.550;2023-06-22T05:18:33;9.75;;;9.72;;
2710;SDS011;20721;47.402;8.550;2023-06-22T05:19:30;9.23;;;9.18;;
2710;SDS011;20721;47.402;8.550;2023-06-22T05:20:32;9.22;;;9.18;;
2710;SDS011;20721;47.402;8.550;2023-06-22T05:22:30;9.70;;;9.62;;
2710;SDS011;20721;47.402;8.550;2023-06-22T05:23:30;10.19;;;10.14;;
2710;SDS011;20721;47.402;8.550;2023-06-22T05:24:30;9.20;;;9.20;;
2710;SDS011;20721;47.402;8.550;2023-06-22T05:25:30;8.69;;;8.69;;
2710;SDS011;20721;47.402;8.550;2023-06-22T05:26:30;9.44;;;9.41;;
2710;SDS011;20721;47.402;8.550;2023-06-22T05:27:30;10.31;;;10.29;;
2710;SDS011;20721;47.402;8.550;2023-06-22T05:28:33;10.10;;;10.08;;
2710;SDS011;20721;47.402;8.550;2023-06-22T05:29:32;9.76;;;9.71;;
2710;SDS011;20721;47.402;8.550;2023-06-22T05:30:32;9.09;;;9.09;;
2710;SDS011;20721;47.402;8.550;2023-06-22T05:31:30;9.51;;;9.48;;
2710;SDS011;20721;47.402;8.550;2023-06-22T05:32:30;8.87;;;8.81;;
2710;SDS011;20721;47.402;8.550;2023-06-22T05:33:30;9.08;;;9.04;;
2710;SDS011;20721;47.402;8.550;2023-06-22T05:34:30;9.20;;;9.17;;
2710;SDS011;20721;47.402;8.550;2023-06-22T05:35:30;9.41;;;9.37;;
2710;SDS011;20721;47.402;8.550;2023-06-22T05:36:31;9.38;;;9.28;;
2710;SDS011;20721;47.402;8.550;2023-06-22T05:37:30;9.22;;;9.17;;
2710;SDS011;20721;47.402;8.550;2023-06-22T05:38:30;9.53;;;9.44;;
2710;SDS011;20721;47.402;8.550;2023-06-22T05:39:30;9.85;;;9.69;;
2710;SDS011;20721;47.402;8.550;2023-06-22T05:40:30;8.82;;;8.76;;
2710;SDS011;20721;47.402;8.550;2023-06-22T05:41:30;8.88;;;8.88;;
2710;SDS011;20721;47.402;8.550;2023-06-22T05:42:31;9.07;;;9.07;;
2710;SDS011;20721;47.402;8.550;2023-06-22T05:43:30;9.44;;;9.44;;
2710;SDS011;20721;47.402;8.550;2023-06-22T05:44:30;9.11;;;9.11;;
2710;SDS011;20721;47.402;8.550;2023-06-22T05:45:30;8.65;;;8.63;;
2710;SDS011;20721;47.402;8.550;2023-06-22T05:46:30;9.37;;;9.30;;
2710;SDS011;20721;47.402;8.550;2023-06-22T05:47:30;9.02;;;9.00;;
2710;SDS011;20721;47.402;8.550;2023-06-22T05:48:30;8.45;;;8.45;;
2710;SDS011;20721;47.402;8.550;2023-06-22T05:49:32;9.62;;;9.59;;
2710;SDS011;20721;47.402;8.550;2023-06-22T05:50:30;9.12;;;9.08;;
2710;SDS011;20721;47.402;8.550;2023-06-22T05:51:30;9.19;;;9.17;;
2710;SDS011;20721;47.402;8.550;2023-06-22T05:52:30;9.30;;;9.26;;
2710;SDS011;20721;47.402;8.550;2023-06-22T05:53:30;9.19;;;9.14;;
2710;SDS011;20721;47.402;8.550;2023-06-22T05:54:30;9.11;;;9.06;;
2710;SDS011;20721;47.402;8.550;2023-06-22T05:55:30;8.79;;;8.79;;
2710;SDS011;20721;47.402;8.550;2023-06-22T05:56:30;8.45;;;8.44;;
2710;SDS011;20721;47.402;8.550;2023-06-22T05:57:31;8.71;;;8.67;;
2710;SDS011;20721;47.402;8.550;2023-06-22T05:58:30;9.80;;;9.74;;
2710;SDS011;20721;47.402;8.550;2023-06-22T05:59:30;9.38;;;9.33;;
2710;SDS011;20721;47.402;8.550;2023-06-22T06:00:32;8.68;;;8.64;;
2710;SDS011;20721;47.402;8.550;2023-06-22T06:01:30;8.30;;;8.29;;
2710;SDS011;20721;47.402;8.550;2023-06-22T06:02:30;8.96;;;8.93;;
2710;SDS011;20721;47.402;8.550;2023-06-22T06:03:30;8.12;;;8.10;;
2710;SDS011;20721;47.402;8.550;2023-06-22T06:04:30;9.64;;;9.62;;
2710;SDS011;20721;47.402;8.550;2023-06-22T06:05:31;9.64;;;9.59;;
2710;SDS011;20721;47.402;8.550;2023-06-22T06:06:31;8.67;;;8.60;;
2710;SDS011;20721;47.402;8.550;2023-06-22T06:07:30;8.28;;;8.27;;
2710;SDS011;20721;47.402;8.550;2023-06-22T06:08:30;9.54;;;9.53;;
2710;SDS011;20721;47.402;8.550;2023-06-22T06:09:30;9.57;;;9.53;;
2710;SDS011;20721;47.402;8.550;2023-06-22T06:10:31;9.48;;;9.42;;
2710;SDS011;20721;47.402;8.550;2023-06-22T06:11:31;10.46;;;10.37;;
2710;SDS011;20721;47.402;8.550;2023-06-22T06:12:30;9.68;;;9.62;;
2710;SDS011;20721;47.402;8.550;2023-06-22T06:13:30;9.16;;;9.06;;
2710;SDS011;20721;47.402;8.550;2023-06-22T06:14:31;9.45;;;9.38;;
2710;SDS011;20721;47.402;8.550;2023-06-22T06:15:31;9.72;;;9.59;;
2710;SDS011;20721;47.402;8.550;2023-06-22T06:16:30;9.72;;;9.58;;
2710;SDS011;20721;47.402;8.550;2023-06-22T06:17:30;9.19;;;9.08;;
2710;SDS011;20721;47.402;8.550;2023-06-22T06:18:30;9.64;;;9.60;;
2710;SDS011;20721;47.402;8.550;2023-06-22T06:19:31;10.59;;;10.50;;
2710;SDS011;20721;47.402;8.550;2023-06-22T06:20:33;8.81;;;8.67;;
2710;SDS011;20721;47.402;8.550;2023-06-22T06:21:30;9.37;;;9.21;;
2710;SDS011;20721;47.402;8.550;2023-06-22T06:22:31;9.44;;;9.26;;
2710;SDS011;20721;47.402;8.550;2023-06-22T06:23:30;8.68;;;8.63;;
2710;SDS011;20721;47.402;8.550;2023-06-22T06:24:30;9.50;;;9.50;;
2710;SDS011;20721;47.402;8.550;2023-06-22T06:25:32;9.56;;;9.56;;
2710;SDS011;20721;47.402;8.550;2023-06-22T06:26:37;9.51;;;9.51;;
2710;SDS011;20721;47.402;8.550;2023-06-22T06:27:30;9.00;;;9.00;;
2710;SDS011;20721;47.402;8.550;2023-06-22T06:28:30;9.54;;;9.54;;
2710;SDS011;20721;47.402;8.550;2023-06-22T06:29:31;9.55;;;9.55;;
2710;SDS011;20721;47.402;8.550;2023-06-22T06:30:30;9.60;;;9.60;;
2710;SDS011;20721;47.402;8.550;2023-06-22T06:31:30;8.28;;;8.28;;
2710;SDS011;20721;47.402;8.550;2023-06-22T06:32:30;8.24;;;8.23;;
2710;SDS011;20721;47.402;8.550;2023-06-22T06:33:31;8.42;;;8.38;;
2710;SDS011;20721;47.402;8.550;2023-06-22T06:34:30;8.20;;;8.18;;
2710;SDS011;20721;47.402;8.550;2023-06-22T06:35:31;8.84;;;8.81;;
2710;SDS011;20721;47.402;8.550;2023-06-22T06:36:30;8.00;;;7.96;;
2710;SDS011;20721;47.402;8.550;2023-06-22T06:37:30;8.19;;;8.13;;
2710;SDS011;20721;47.402;8.550;2023-06-22T06:38:30;8.40;;;8.35;;
2710;SDS011;20721;47.402;8.550;2023-06-22T06:39:30;7.34;;;7.34;;
2710;SDS011;20721;47.402;8.550;2023-06-22T06:40:30;8.05;;;8.04;;
2710;SDS011;20721;47.402;8.550;2023-06-22T06:41:31;8.32;;;8.28;;
2710;SDS011;20721;47.402;8.550;2023-06-22T06:42:30;8.20;;;8.15;;
2710;SDS011;20721;47.402;8.550;2023-06-22T06:43:30;8.47;;;8.42;;
2710;SDS011;20721;47.402;8.550;2023-06-22T06:44:31;8.61;;;8.57;;
2710;SDS011;20721;47.402;8.550;2023-06-22T06:45:33;7.89;;;7.78;;
2710;SDS011;20721;47.402;8.550;2023-06-22T06:46:30;7.62;;;7.54;;
2710;SDS011;20721;47.402;8.550;2023-06-22T06:47:30;8.39;;;8.33;;
2710;SDS011;20721;47.402;8.550;2023-06-22T06:48:30;8.57;;;8.51;;
2710;SDS011;20721;47.402;8.550;2023-06-22T06:49:30;8.42;;;8.40;;
2710;SDS011;20721;47.402;8.550;2023-06-22T06:50:31;8.60;;;8.58;;
2710;SDS011;20721;47.402;8.550;2023-06-22T06:51:30;8.66;;;8.64;;
2710;SDS011;20721;47.402;8.550;2023-06-22T06:52:30;8.52;;;8.48;;
2710;SDS011;20721;47.402;8.550;2023-06-22T06:53:30;7.45;;;7.44;;